Terminal Aerodrome Forecast
Issued by NWS Springfield, MO

Home | Current Version | Previous Version | Text Only | Print | Product List | Glossary On
Versions: 1 2 3 4 5 6 7 8 9 10 11 12 13
091
FTUS43 KSGF 251720
TAFSGF
TAF
KSGF 251720Z 2518/2618 17020G31KT P6SM FEW250
     FM260000 17012KT P6SM BKN100
     FM260600 17010KT P6SM -SHRA VCTS SCT050CB PROB30 2606/2612 5SM
      -TSRA BR OVC035CB
     FM261300 30010KT P6SM -SHRA OVC007=

USA.gov is the U.S. government's official web portal to all federal, state and local government web resources and services.